Time;durP1;ratioP1;P1;durP2;ratioP2;P2;SDS_P1;SDS_P2;PMS_P1;PMS_P2;Temp;Humidity;BMP_temperature;BMP_pressure;BME280_temperature;BME280_humidity;BME280_pressure;Samples;Min_cycle;Max_cycle;Signal;HPM_P1;HPM_P2
2023/02/11 00:00:41;;;;;;;43.58;20.50;;;;;;;5.00;100.00;103210.72;5008427;28;20026;-79
2023/02/11 00:03:06;;;;;;;43.33;20.05;;;;;;;5.03;100.00;103205.47;5011698;28;20022;-80
2023/02/11 00:05:32;;;;;;;42.28;18.95;;;;;;;5.08;100.00;103198.41;4993254;28;20450;-80
2023/02/11 00:07:58;;;;;;;45.22;22.20;;;;;;;5.03;100.00;103205.47;4992694;28;20113;-78
2023/02/11 00:10:23;;;;;;;43.67;21.40;;;;;;;5.16;99.92;103191.22;4993864;28;20034;-78
2023/02/11 00:12:49;;;;;;;42.70;20.10;;;;;;;4.97;100.00;103195.41;4992692;28;20034;-81
2023/02/11 00:15:14;;;;;;;45.72;20.48;;;;;;;4.96;100.00;103194.59;4993037;28;20569;-78
2023/02/11 00:17:40;;;;;;;44.28;20.60;;;;;;;4.98;100.00;103197.94;4989190;28;20033;-78
2023/02/11 00:20:06;;;;;;;40.85;20.08;;;;;;;4.82;100.00;103186.56;4986508;28;20029;-80
2023/02/11 00:22:46;;;;;;;46.60;20.15;;;;;;;4.88;100.00;103181.22;4992613;28;20041;-79
2023/02/11 00:25:12;;;;;;;45.97;21.02;;;;;;;4.81;100.00;103167.75;5008215;28;20033;-78
2023/02/11 00:27:37;;;;;;;48.63;21.05;;;;;;;4.70;100.00;103167.31;5010387;28;20045;-80
2023/02/11 00:30:04;;;;;;;47.95;20.35;;;;;;;4.69;100.00;103168.25;4994007;28;20526;-81
2023/02/11 00:32:29;;;;;;;49.38;20.77;;;;;;;4.72;100.00;103169.84;4992674;28;20498;-78
2023/02/11 00:34:55;;;;;;;45.40;21.73;;;;;;;4.65;100.00;103161.53;4988643;28;20042;-80
2023/02/11 00:37:21;;;;;;;46.33;22.98;;;;;;;4.58;100.00;103157.53;4998221;28;20034;-78
2023/02/11 00:39:46;;;;;;;46.17;21.25;;;;;;;4.68;100.00;103151.97;4997869;28;20060;-78
2023/02/11 00:42:13;;;;;;;51.47;21.95;;;;;;;4.62;100.00;103159.91;4989996;28;20491;-78
2023/02/11 00:44:39;;;;;;;47.50;21.90;;;;;;;4.57;100.00;103159.25;4995111;28;20624;-77
2023/02/11 00:47:05;;;;;;;55.08;23.42;;;;;;;4.57;100.00;103169.53;4976817;28;20030;-78
2023/02/11 00:49:30;;;;;;;53.00;22.33;;;;;;;4.55;100.00;103170.50;4995675;28;20402;-79
2023/02/11 00:51:56;;;;;;;52.10;21.70;;;;;;;4.44;100.00;103168.31;4992475;28;20041;-78
2023/02/11 00:54:21;;;;;;;47.67;22.77;;;;;;;4.52;100.00;103184.31;4994261;28;20033;-79
2023/02/11 00:56:49;;;;;;;57.92;23.80;;;;;;;4.45;100.00;103182.88;4977658;28;20091;-82
2023/02/11 00:59:15;;;;;;;47.15;21.13;;;;;;;4.50;100.00;103175.78;5010464;28;20063;-78
2023/02/11 01:01:42;;;;;;;51.70;22.58;;;;;;;4.43;100.00;103170.06;4976059;28;20034;-78
2023/02/11 01:04:08;;;;;;;47.45;22.75;;;;;;;4.43;100.00;103159.78;4992738;28;20033;-78
2023/02/11 01:06:34;;;;;;;52.33;22.23;;;;;;;4.38;100.00;103159.13;5006519;28;20042;-77
2023/02/11 01:09:00;;;;;;;45.38;21.38;;;;;;;4.38;100.00;103148.84;4989851;28;20460;-78
2023/02/11 01:11:33;;;;;;;52.05;22.27;;;;;;;4.54;100.00;103153.38;5003049;28;20042;-80
2023/02/11 01:13:59;;;;;;;50.40;21.55;;;;;;;4.57;100.00;103155.84;4994543;28;20038;-80
2023/02/11 01:16:25;;;;;;;54.38;23.23;;;;;;;4.53;100.00;103159.44;4989211;28;20035;-80
2023/02/11 01:18:52;;;;;;;51.33;22.45;;;;;;;4.43;100.00;103157.22;4993244;28;20036;-80
2023/02/11 01:21:18;;;;;;;49.13;22.73;;;;;;;4.33;100.00;103163.59;4975964;28;20039;-78
2023/02/11 01:23:43;;;;;;;46.55;21.13;;;;;;;4.26;100.00;103178.41;4972692;28;20653;-80
2023/02/11 01:26:21;;;;;;;51.28;22.30;;;;;;;4.36;100.00;103166.03;5006130;28;20045;-84
2023/02/11 01:28:46;;;;;;;51.65;23.38;;;;;;;4.36;100.00;103170.34;5007052;28;20034;-77
2023/02/11 01:31:12;;;;;;;49.83;22.90;;;;;;;4.41;100.00;103177.00;5006429;28;20491;-78
2023/02/11 01:33:38;;;;;;;55.00;22.50;;;;;;;4.41;100.00;103171.03;4993030;28;20038;-79
2023/02/11 01:36:06;;;;;;;57.17;22.73;;;;;;;4.40;100.00;103175.31;5005605;28;20044;-78
2023/02/11 01:38:32;;;;;;;45.28;21.70;;;;;;;4.38;100.00;103174.53;4996657;28;20034;-77
2023/02/11 01:41:08;;;;;;;45.65;22.88;;;;;;;4.38;100.00;103174.53;4979849;28;20122;-80
2023/02/11 01:43:41;;;;;;;47.13;22.85;;;;;;;4.44;100.00;103174.28;4991447;28;20521;-78
2023/02/11 01:46:22;;;;;;;48.85;22.48;;;;;;;4.53;100.00;103177.44;4976034;28;20854;-79
2023/02/11 01:48:54;;;;;;;49.80;20.73;;;;;;;4.49;100.00;103180.09;4993177;28;20449;-78
2023/02/11 01:51:24;;;;;;;49.60;23.00;;;;;;;4.42;100.00;103193.25;4979168;28;20084;-78
2023/02/11 01:59:29;;;;;;;46.85;20.67;;;;;;;4.39;100.00;103194.22;4994100;28;20033;-77
2023/02/11 02:02:02;;;;;;;39.80;19.65;;;;;;;4.50;100.00;103175.78;5003996;28;20113;-79
2023/02/11 02:04:34;;;;;;;49.00;20.95;;;;;;;4.49;100.00;103167.25;4993359;28;20042;-78
2023/02/11 02:07:09;;;;;;;48.30;22.03;;;;;;;4.51;100.00;103176.66;4991405;28;20041;-80
2023/02/11 02:09:48;;;;;;;54.78;23.52;;;;;;;4.56;100.00;103165.31;4995604;28;20428;-79
2023/02/11 02:12:14;;;;;;;45.25;20.73;;;;;;;4.55;100.00;103162.78;4993412;28;20124;-78
2023/02/11 02:14:40;;;;;;;43.90;20.58;;;;;;;4.49;100.00;103158.72;4990268;28;20088;-80
2023/02/11 02:17:16;;;;;;;51.10;20.50;;;;;;;4.57;100.00;103145.56;4992563;28;20046;-79
2023/02/11 02:20:17;;;;;;;46.28;20.45;;;;;;;4.49;100.00;103144.13;4995352;28;20624;-84
2023/02/11 02:23:10;;;;;;;40.00;20.00;;;;;;;4.60;100.00;103153.19;5004603;28;20080;-77
2023/02/11 02:25:46;;;;;;;;;;;;;;;4.53;100.00;103149.16;4992401;28;20088;-79
2023/02/11 02:28:41;;;;;;;54.03;21.42;;;;;;;4.61;100.00;103147.13;5003232;28;19914;-81
2023/02/11 02:31:45;;;;;;;48.55;21.80;;;;;;;4.49;100.00;103149.28;5009698;28;20043;-78
2023/02/11 02:34:34;;;;;;;47.38;20.75;;;;;;;4.50;100.00;103144.97;4991740;28;20040;-78
2023/02/11 02:37:07;;;;;;;49.75;20.45;;;;;;;4.50;100.00;103142.38;4995685;28;20038;-78
2023/02/11 02:39:34;;;;;;;;;;;;;;;4.58;100.00;103142.94;5010880;28;20406;-80
2023/02/11 02:42:01;;;;;;;52.95;19.55;;;;;;;4.64;100.00;103139.31;5013493;28;19917;-78
2023/02/11 02:44:27;;;;;;;46.70;20.35;;;;;;;4.58;100.00;103144.69;4992904;28;20035;-79
2023/02/11 02:46:53;;;;;;;49.25;20.45;;;;;;;4.65;100.00;103133.25;5008700;28;20046;-79
2023/02/11 02:49:18;;;;;;;47.42;20.13;;;;;;;4.68;100.00;103128.00;4996975;28;20030;-81
2023/02/11 02:52:02;;;;;;;52.95;21.63;;;;;;;4.68;100.00;103133.97;4992733;28;20037;-79
2023/02/11 02:54:41;;;;;;;43.28;19.30;;;;;;;4.84;100.00;103131.66;4977999;28;20494;-79
2023/02/11 02:57:58;;;;;;;42.88;19.35;;;;;;;4.66;100.00;103138.34;4993831;28;20033;-80
2023/02/11 03:00:36;;;;;;;43.92;20.77;;;;;;;4.72;100.00;103139.81;4974360;28;20061;-78
2023/02/11 03:03:23;;;;;;;51.58;20.00;;;;;;;4.67;100.00;103141.72;5013563;28;20038;-79
2023/02/11 03:05:58;;;;;;;49.40;19.73;;;;;;;4.63;100.00;103142.75;4992711;28;20487;-78
2023/02/11 03:08:44;;;;;;;48.30;19.05;;;;;;;4.70;100.00;103136.47;5015959;28;20401;-82
2023/02/11 03:11:14;;;;;;;54.80;21.65;;;;;;;4.68;100.00;103146.00;5012462;28;20046;-79
2023/02/11 03:13:41;;;;;;;42.53;17.27;;;;;;;4.68;100.00;103136.53;4997540;28;20034;-79
2023/02/11 03:16:12;;;;;;;44.22;19.00;;;;;;;4.78;100.00;103128.47;4992982;28;20075;-78
2023/02/11 03:18:41;;;;;;;44.97;18.55;;;;;;;4.91;100.00;103110.81;5003383;28;20513;-77
2023/02/11 03:21:09;;;;;;;40.15;18.55;;;;;;;4.93;100.00;103102.13;4991141;28;20985;-78
2023/02/11 03:23:51;;;;;;;44.42;17.65;;;;;;;4.93;100.00;103098.72;5011190;28;20136;-78
2023/02/11 03:26:31;;;;;;;36.78;17.90;;;;;;;4.90;100.00;103097.13;5009792;28;20033;-76
2023/02/11 03:29:06;;;;;;;42.13;17.80;;;;;;;4.78;100.00;103106.16;4994820;28;20029;-78
2023/02/11 03:31:58;;;;;;;46.65;18.52;;;;;;;4.86;100.00;103109.28;4980013;28;20096;-78
2023/02/11 03:34:32;;;;;;;43.13;17.70;;;;;;;4.78;100.00;103108.72;5010906;28;20030;-81
2023/02/11 03:37:06;;;;;;;45.08;17.85;;;;;;;4.81;100.00;103107.78;4994696;28;20037;-78
2023/02/11 03:39:38;;;;;;;43.50;18.17;;;;;;;4.67;100.00;103100.59;5011501;28;20116;-78
2023/02/11 03:42:07;;;;;;;39.40;18.00;;;;;;;4.75;100.00;103097.75;5009556;28;20081;-78
2023/02/11 03:44:39;;;;;;;42.45;18.83;;;;;;;4.79;100.00;103089.03;4995905;28;20032;-78
2023/02/11 03:47:07;;;;;;;41.10;17.63;;;;;;;4.74;100.00;103094.34;4992609;28;20030;-81
2023/02/11 03:49:35;;;;;;;39.20;17.77;;;;;;;4.73;100.00;103096.97;5013385;28;20426;-80
2023/02/11 03:52:02;;;;;;;39.33;18.02;;;;;;;4.74;100.00;103101.22;4993605;28;20029;-78
2023/02/11 03:54:29;;;;;;;42.75;18.05;;;;;;;4.77;100.00;103104.50;5008082;28;20042;-79
2023/02/11 03:56:58;;;;;;;40.80;17.50;;;;;;;4.74;100.00;103102.03;4994929;28;20087;-80
2023/02/11 03:59:24;;;;;;;41.38;17.45;;;;;;;4.74;100.00;103106.34;4997378;28;20037;-78
2023/02/11 04:01:50;;;;;;;38.75;18.60;;;;;;;4.77;100.00;103107.06;4994885;28;20063;-79
2023/02/11 04:04:16;;;;;;;44.78;17.90;;;;;;;4.90;100.00;103110.00;4997781;28;20475;-79
2023/02/11 04:06:42;;;;;;;50.53;19.27;;;;;;;4.82;100.00;103110.31;5015968;28;20037;-85
2023/02/11 04:09:09;;;;;;;48.40;18.08;;;;;;;4.81;100.00;103102.66;5013877;28;20116;-79
2023/02/11 04:11:34;;;;;;;45.72;18.98;;;;;;;4.86;100.00;103088.72;4993760;28;20030;-78
2023/02/11 04:13:59;;;;;;;40.65;18.45;;;;;;;4.72;100.00;103090.16;5011083;28;20036;-77
2023/02/11 04:16:25;;;;;;;51.17;20.15;;;;;;;4.81;100.00;103087.22;4993755;28;20041;-78
2023/02/11 04:18:51;;;;;;;49.70;18.77;;;;;;;4.82;100.00;103087.16;4992265;28;20034;-79
2023/02/11 04:21:16;;;;;;;54.47;19.48;;;;;;;4.80;100.00;103095.81;4993982;28;20046;-79
2023/02/11 04:23:42;;;;;;;50.42;18.98;;;;;;;4.74;100.00;103101.22;5009646;28;20048;-79
2023/02/11 04:26:07;;;;;;;45.85;19.20;;;;;;;4.76;100.00;103094.28;4993640;28;20045;-78
2023/02/11 04:28:35;;;;;;;58.72;19.27;;;;;;;4.80;100.00;103093.25;5012279;28;20038;-79
2023/02/11 04:31:00;;;;;;;48.13;19.55;;;;;;;4.79;100.00;103091.59;4994854;28;20059;-82
2023/02/11 04:33:26;;;;;;;52.63;19.58;;;;;;;4.86;100.00;103093.03;4994910;28;20664;-79
2023/02/11 04:35:51;;;;;;;41.17;17.92;;;;;;;4.88;100.00;103084.34;5009859;28;20069;-79
2023/02/11 04:38:17;;;;;;;50.03;18.50;;;;;;;4.82;100.00;103082.03;5027572;28;20033;-79
2023/02/11 04:40:43;;;;;;;43.15;18.77;;;;;;;4.72;100.00;103098.69;4993164;28;20038;-80
2023/02/11 04:43:08;;;;;;;41.70;18.75;;;;;;;4.67;100.00;103090.31;5009491;28;20025;-79
2023/02/11 04:45:34;;;;;;;56.75;18.42;;;;;;;4.91;100.00;103100.53;4992832;28;20026;-81
2023/02/11 04:48:01;;;;;;;42.88;17.02;;;;;;;4.81;100.00;103100.06;4993078;28;20034;-79
2023/02/11 04:50:27;;;;;;;44.75;18.60;;;;;;;4.86;100.00;103106.69;4990332;28;20219;-78
2023/02/11 04:52:52;;;;;;;46.88;17.80;;;;;;;4.81;100.00;103113.75;4992784;28;20116;-78
2023/02/11 04:55:18;;;;;;;48.85;19.20;;;;;;;4.74;100.00;103112.31;5009693;28;20033;-78
2023/02/11 04:57:43;;;;;;;46.85;18.58;;;;;;;4.72;100.00;103124.41;5010527;28;22115;-79
2023/02/11 05:00:09;;;;;;;44.97;18.15;;;;;;;4.69;100.00;103116.84;4993602;28;20121;-78
2023/02/11 05:02:35;;;;;;;45.97;18.83;;;;;;;4.83;100.00;103116.28;4990932;28;20087;-80
2023/02/11 05:05:01;;;;;;;38.30;18.23;;;;;;;4.82;100.00;103112.00;4993084;28;20038;-79
2023/02/11 05:07:26;;;;;;;51.13;18.83;;;;;;;4.83;100.00;103108.56;4979142;28;20613;-78
2023/02/11 05:09:53;;;;;;;50.42;17.17;;;;;;;4.66;100.00;103104.09;5011761;28;20041;-80
2023/02/11 05:12:19;;;;;;;41.92;18.80;;;;;;;4.73;100.00;103105.53;5011329;28;20030;-78
2023/02/11 05:14:44;;;;;;;49.83;19.55;;;;;;;4.71;100.00;103101.31;4989710;28;20380;-78
2023/02/11 05:17:10;;;;;;;43.85;17.10;;;;;;;4.81;100.00;103100.06;4992449;28;20037;-80
2023/02/11 05:19:35;;;;;;;48.97;18.90;;;;;;;4.87;100.00;103098.06;4989084;28;20483;-78
2023/02/11 05:22:01;;;;;;;48.78;18.20;;;;;;;4.78;100.00;103093.31;5006873;28;20030;-80
2023/02/11 05:24:26;;;;;;;40.05;19.38;;;;;;;4.76;100.00;103100.25;4993237;28;20037;-79
2023/02/11 05:26:52;;;;;;;45.72;18.98;;;;;;;4.68;100.00;103097.16;4991567;28;20042;-78
2023/02/11 05:29:17;;;;;;;49.78;18.88;;;;;;;4.60;100.00;103099.22;4998378;28;20029;-79
2023/02/11 05:31:43;;;;;;;43.42;18.92;;;;;;;4.67;100.00;103109.19;4996475;28;20075;-79
2023/02/11 05:34:08;;;;;;;42.33;19.13;;;;;;;4.73;100.00;103104.66;4995261;28;20064;-79
2023/02/11 05:36:34;;;;;;;62.92;20.92;;;;;;;4.63;100.00;103106.78;5007908;28;20033;-78
2023/02/11 05:39:00;;;;;;;46.92;19.55;;;;;;;4.75;100.00;103092.63;5010072;28;20042;-78
2023/02/11 05:41:25;;;;;;;60.53;20.45;;;;;;;4.63;100.00;103081.06;4993363;28;20088;-79
2023/02/11 05:43:51;;;;;;;53.58;19.77;;;;;;;4.70;100.00;103077.38;5009004;28;20065;-80
2023/02/11 05:46:17;;;;;;;51.38;19.30;;;;;;;4.61;100.00;103085.44;4989605;28;20045;-82
2023/02/11 05:48:42;;;;;;;48.55;19.67;;;;;;;4.76;100.00;103074.53;4992324;28;20034;-85
2023/02/11 05:51:08;;;;;;;60.60;20.45;;;;;;;4.68;100.00;103080.00;4989863;28;20030;-78
2023/02/11 05:53:33;;;;;;;57.45;18.52;;;;;;;4.78;100.00;103072.75;5010730;28;20049;-80
2023/02/11 05:55:59;;;;;;;57.75;19.38;;;;;;;4.68;100.00;103074.84;4994015;28;20036;-78
2023/02/11 05:58:25;;;;;;;54.25;19.38;;;;;;;4.75;100.00;103077.19;5024495;28;20129;-82
2023/02/11 06:00:50;;;;;;;47.50;19.60;;;;;;;4.69;100.00;103073.13;4974569;28;20038;-79
2023/02/11 06:03:15;;;;;;;48.70;19.02;;;;;;;4.66;100.00;103075.81;4993992;28;20030;-79
2023/02/11 06:05:42;;;;;;;47.95;19.27;;;;;;;4.73;100.00;103089.25;4976711;28;20041;-79
2023/02/11 06:08:07;;;;;;;61.83;19.63;;;;;;;4.73;100.00;103084.09;5005329;28;20564;-80
2023/02/11 06:10:33;;;;;;;61.53;19.90;;;;;;;4.69;100.00;103088.56;4989940;28;20026;-78
2023/02/11 06:12:59;;;;;;;56.10;20.38;;;;;;;4.74;100.00;103078.91;4976388;28;20506;-79
2023/02/11 06:15:25;;;;;;;50.47;19.25;;;;;;;4.72;100.00;103085.03;4996720;28;20478;-78
2023/02/11 06:17:51;;;;;;;59.33;18.77;;;;;;;4.72;100.00;103093.56;4983987;28;20045;-80
2023/02/11 06:20:16;;;;;;;62.72;22.60;;;;;;;4.81;100.00;103100.06;4993383;28;20029;-80
2023/02/11 06:22:42;;;;;;;55.90;21.02;;;;;;;4.74;100.00;103088.38;5007163;28;20510;-79
2023/02/11 06:25:07;;;;;;;63.85;22.45;;;;;;;4.67;100.00;103087.75;4989323;28;20376;-80
2023/02/11 06:27:33;;;;;;;64.50;21.40;;;;;;;4.78;100.00;103093.31;4978117;28;20053;-80
2023/02/11 06:29:58;;;;;;;54.03;19.27;;;;;;;4.69;100.00;103083.41;4995491;28;20025;-80
2023/02/11 06:32:25;;;;;;;58.20;23.23;;;;;;;4.70;100.00;103084.25;4991868;28;20506;-79
2023/02/11 06:34:50;;;;;;;75.03;26.85;;;;;;;4.66;100.00;103093.81;4994465;28;20130;-79
2023/02/11 06:37:16;;;;;;;87.28;32.97;;;;;;;4.67;100.00;103098.03;4994110;28;20034;-78
2023/02/11 06:39:43;;;;;;;66.60;25.25;;;;;;;4.76;100.00;103095.09;4995052;28;20030;-78
2023/02/11 06:42:09;;;;;;;70.07;25.33;;;;;;;4.77;100.00;103093.38;4981558;28;20061;-79
2023/02/11 06:44:34;;;;;;;64.50;25.98;;;;;;;4.76;100.00;103092.53;4996298;28;20466;-79
2023/02/11 06:47:00;;;;;;;69.93;27.80;;;;;;;4.87;100.00;103084.38;4978706;28;20119;-78
2023/02/11 06:49:25;;;;;;;65.88;25.35;;;;;;;4.84;100.00;103087.94;4998580;28;20040;-79
2023/02/11 06:51:51;;;;;;;80.63;29.35;;;;;;;4.82;100.00;103094.00;4993776;28;20050;-77
2023/02/11 06:54:16;;;;;;;66.80;23.92;;;;;;;4.85;100.00;103112.72;4997771;28;20084;-79
2023/02/11 06:56:42;;;;;;;58.83;23.42;;;;;;;4.85;100.00;103112.72;4995977;28;20495;-82
2023/02/11 06:59:07;;;;;;;84.35;28.58;;;;;;;4.82;100.00;103119.72;5032098;28;20064;-79
2023/02/11 07:01:32;;;;;;;56.53;22.38;;;;;;;4.90;100.00;103119.41;4978360;28;20041;-78
2023/02/11 07:03:58;;;;;;;64.60;23.13;;;;;;;4.89;100.00;103116.00;4977757;28;20034;-77
2023/02/11 07:06:26;;;;;;;66.55;22.95;;;;;;;4.79;100.00;103114.72;4994472;28;20041;-78
2023/02/11 07:08:52;;;;;;;59.63;21.63;;;;;;;4.86;100.00;103113.59;4980969;28;20384;-80
2023/02/11 07:11:26;;;;;;;62.70;21.10;;;;;;;4.86;100.00;103119.56;4991723;28;20046;-79
2023/02/11 07:13:53;;;;;;;54.05;19.98;;;;;;;4.87;100.00;103110.94;5010268;28;21954;-82
2023/02/11 07:16:19;;;;;;;60.50;20.63;;;;;;;4.98;100.00;103105.34;4991312;28;20034;-79
2023/02/11 07:18:54;;;;;;;70.75;23.00;;;;;;;4.97;100.00;103113.13;4978349;28;20370;-78
2023/02/11 07:21:21;;;;;;;65.43;22.67;;;;;;;4.89;100.00;103113.44;5009277;28;20092;-78
2023/02/11 07:23:47;;;;;;;61.70;20.92;;;;;;;4.84;100.00;103121.34;5009391;28;20065;-82
2023/02/11 07:26:19;;;;;;;64.75;22.05;;;;;;;4.79;100.00;103117.31;5010025;28;20034;-78
2023/02/11 07:28:45;;;;;;;64.30;23.52;;;;;;;4.90;100.00;103116.84;4996325;28;20038;-79
2023/02/11 07:31:10;;;;;;;62.60;25.05;;;;;;;4.87;100.00;103120.38;4999010;28;20626;-78
2023/02/11 07:33:36;;;;;;;66.78;28.40;;;;;;;4.81;100.00;103118.91;4986493;28;20026;-79
2023/02/11 07:36:04;;;;;;;85.53;33.45;;;;;;;4.99;100.00;103111.31;4994442;28;20557;-78
2023/02/11 07:38:31;;;;;;;63.65;23.98;;;;;;;4.95;100.00;103114.94;4995696;28;20026;-79
2023/02/11 07:41:01;;;;;;;65.95;23.17;;;;;;;4.94;100.00;103119.25;5014419;28;20046;-79
2023/02/11 07:43:27;;;;;;;63.88;24.17;;;;;;;4.98;100.00;103120.78;5009583;28;20035;-79
2023/02/11 07:45:54;;;;;;;78.35;27.90;;;;;;;4.98;100.00;103132.81;5005392;28;20202;-79
2023/02/11 07:48:20;;;;;;;73.80;26.02;;;;;;;4.93;100.00;103140.69;4996374;28;20030;-79
2023/02/11 07:50:45;;;;;;;78.07;29.33;;;;;;;4.91;100.00;103141.66;5010590;28;20497;-82
2023/02/11 07:53:11;;;;;;;69.03;23.77;;;;;;;5.03;100.00;103148.91;5009323;28;20046;-78
2023/02/11 07:55:36;;;;;;;67.80;22.77;;;;;;;4.93;100.00;103152.72;4989684;28;20053;-80
2023/02/11 07:58:02;;;;;;;67.53;22.65;;;;;;;5.06;100.00;103151.31;5012240;28;20026;-79
2023/02/11 08:00:27;;;;;;;79.85;24.98;;;;;;;5.03;100.00;103154.88;4992145;28;20560;-78
2023/02/11 08:02:53;;;;;;;65.47;23.63;;;;;;;5.01;100.00;103159.25;5003825;28;20042;-80
2023/02/11 08:05:18;;;;;;;68.57;24.48;;;;;;;5.04;100.00;103159.09;4979947;28;20034;-79
2023/02/11 08:07:44;;;;;;;83.10;24.95;;;;;;;4.99;100.00;103161.03;4994228;28;20097;-79
2023/02/11 08:10:09;;;;;;;67.25;25.25;;;;;;;5.00;100.00;103155.00;4978750;28;20033;-79
2023/02/11 08:12:34;;;;;;;75.63;27.65;;;;;;;5.08;100.00;103152.09;4978007;28;20038;-81
2023/02/11 08:15:00;;;;;;;87.60;27.83;;;;;;;5.10;100.00;103154.63;5011511;28;20065;-80
2023/02/11 08:17:26;;;;;;;69.55;25.02;;;;;;;5.17;100.00;103161.19;4992773;28;20038;-79
2023/02/11 08:19:52;;;;;;;69.47;26.05;;;;;;;5.11;100.00;103157.13;5009576;28;20631;-78
2023/02/11 08:22:17;;;;;;;82.85;27.90;;;;;;;5.08;100.00;103162.38;4993309;28;20060;-78
2023/02/11 08:24:43;;;;;;;89.32;27.65;;;;;;;5.09;100.00;103160.69;5011445;28;20038;-77
2023/02/11 08:27:08;;;;;;;84.97;26.85;;;;;;;5.07;100.00;103155.59;4994568;28;20026;-80
2023/02/11 08:29:34;;;;;;;78.40;27.30;;;;;;;5.06;100.00;103164.19;4978425;28;20025;-81
2023/02/11 08:32:01;;;;;;;83.00;27.85;;;;;;;5.19;100.00;103162.78;4993948;28;20030;-78
2023/02/11 08:34:26;;;;;;;104.40;34.30;;;;;;;5.22;100.00;103162.66;5012369;28;20033;-79
2023/02/11 08:36:52;;;;;;;103.85;37.55;;;;;;;5.34;100.00;103169.03;4995473;28;20564;-79
2023/02/11 08:39:20;;;;;;;109.72;35.90;;;;;;;5.32;100.00;103168.25;4995726;28;20239;-78
2023/02/11 08:41:52;;;;;;;148.68;49.08;;;;;;;5.34;100.00;103171.59;5013395;28;20040;-79
2023/02/11 08:44:19;;;;;;;80.25;28.73;;;;;;;5.29;100.00;103181.25;5003870;28;20213;-81
2023/02/11 08:46:44;;;;;;;97.53;34.88;;;;;;;5.26;100.00;103173.69;4981122;28;20039;-78
2023/02/11 08:49:10;;;;;;;130.07;43.08;;;;;;;5.26;100.00;103179.66;4997070;28;20033;-78
2023/02/11 08:51:36;;;;;;;99.28;36.30;;;;;;;5.22;100.00;103185.81;4997605;28;20569;-80
2023/02/11 08:54:01;;;;;;;99.32;38.22;;;;;;;5.47;100.00;103179.66;4993255;28;20506;-79
2023/02/11 08:56:27;;;;;;;82.28;29.90;;;;;;;5.47;100.00;103183.06;4992684;28;20411;-79
2023/02/11 08:58:53;;;;;;;78.18;26.83;;;;;;;5.53;100.00;103191.44;4995372;28;20030;-81
2023/02/11 09:01:22;;;;;;;74.85;24.95;;;;;;;5.56;100.00;103186.16;4992947;28;20514;-79
2023/02/11 09:03:47;;;;;;;76.82;25.83;;;;;;;5.53;100.00;103186.28;4992751;28;20266;-79
2023/02/11 09:06:13;;;;;;;67.60;26.13;;;;;;;5.58;100.00;103200.63;4978456;28;20614;-78
2023/02/11 09:08:43;;;;;;;73.47;28.02;;;;;;;5.64;100.00;103195.22;4994575;28;20556;-79
2023/02/11 09:11:12;;;;;;;81.28;29.52;;;;;;;5.72;100.00;103188.91;5008928;28;20030;-78
2023/02/11 09:13:40;;;;;;;82.03;27.90;;;;;;;5.79;100.00;103190.31;4993948;28;20049;-79
2023/02/11 09:16:25;;;;;;;76.20;25.40;;;;;;;5.71;100.00;103202.66;4992639;28;20118;-78
2023/02/11 09:18:50;;;;;;;82.50;28.30;;;;;;;5.74;100.00;103198.22;5010353;28;20034;-80
2023/02/11 09:21:17;;;;;;;76.65;27.13;;;;;;;5.72;100.00;103205.19;4977743;28;20127;-79
2023/02/11 09:23:43;;;;;;;86.43;26.67;;;;;;;5.69;100.00;103207.06;4994701;28;20748;-85
2023/02/11 09:26:16;;;;;;;72.60;26.85;;;;;;;5.74;100.00;103199.97;4992606;28;20038;-80
2023/02/11 09:28:41;;;;;;;77.28;25.65;;;;;;;5.71;100.00;103198.38;4992441;28;20113;-79
2023/02/11 09:31:09;;;;;;;83.20;27.67;;;;;;;5.73;100.00;103201.72;4993298;28;20121;-78
2023/02/11 09:33:35;;;;;;;80.78;27.83;;;;;;;5.91;100.00;103212.13;5011062;28;20127;-78
2023/02/11 09:36:04;;;;;;;78.30;27.52;;;;;;;5.89;100.00;103213.94;5010545;28;20304;-80
2023/02/11 09:38:29;;;;;;;79.40;25.85;;;;;;;6.00;100.00;103215.16;5006874;28;20406;-80
2023/02/11 09:40:55;;;;;;;71.82;27.05;;;;;;;5.93;100.00;103223.19;4978124;28;20030;-81
2023/02/11 09:43:32;;;;;;;78.95;26.90;;;;;;;6.03;100.00;103222.75;4977272;28;20026;-80
2023/02/11 09:45:58;;;;;;;71.25;25.83;;;;;;;6.00;100.00;103217.72;5008523;28;20054;-83
2023/02/11 09:48:24;;;;;;;83.13;26.98;;;;;;;5.97;100.00;103224.75;5010427;28;20037;-79
2023/02/11 09:50:59;;;;;;;78.45;27.83;;;;;;;6.00;100.00;103215.16;4996408;28;20127;-78
2023/02/11 09:53:25;;;;;;;86.68;27.58;;;;;;;6.04;100.00;103216.69;4993337;28;20635;-78
2023/02/11 09:55:54;;;;;;;93.60;32.10;;;;;;;6.07;100.00;103222.63;4992522;28;20041;-79
2023/02/11 09:58:26;;;;;;;70.38;27.15;;;;;;;6.00;100.00;103224.63;5009996;28;20025;-79
2023/02/11 10:01:01;;;;;;;75.22;27.48;;;;;;;6.02;100.00;103227.97;5008254;28;20056;-78
2023/02/11 10:03:52;;;;;;;88.18;31.10;;;;;;;5.99;100.00;103235.81;4995231;28;20138;-78
2023/02/11 10:06:37;;;;;;;104.00;34.00;;;;;;;6.00;100.00;103240.09;4992366;28;20060;-80
2023/02/11 10:09:29;;;;;;;181.40;57.20;;;;;;;5.93;100.00;103249.78;5010044;28;20033;-82
2023/02/11 10:12:22;;;;;;;183.88;56.30;;;;;;;5.92;100.00;103245.53;4993848;28;20038;-81
2023/02/11 10:15:12;;;;;;;147.55;45.67;;;;;;;5.94;100.00;103256.63;4986666;28;20057;-79
2023/02/11 10:18:03;;;;;;;173.88;52.60;;;;;;;5.94;100.00;103246.31;4991844;28;20052;-79
2023/02/11 10:20:47;;;;;;;124.97;41.65;;;;;;;6.04;100.00;103247.59;5008547;28;20040;-79
2023/02/11 10:23:24;;;;;;;131.90;40.72;;;;;;;6.03;100.00;103258.81;4993472;28;20042;-80
2023/02/11 10:25:55;;;;;;;136.65;40.45;;;;;;;6.12;100.00;103257.59;5006843;28;20105;-79
2023/02/11 10:28:30;;;;;;;134.07;41.28;;;;;;;6.09;100.00;103252.56;4993402;28;20034;-77
2023/02/11 10:31:00;;;;;;;162.43;49.83;;;;;;;6.11;100.00;103266.22;5006362;28;20406;-83
2023/02/11 10:33:51;;;;;;;202.20;57.05;;;;;;;6.15;100.00;103259.19;5008636;28;20561;-81
2023/02/11 10:36:17;;;;;;;163.23;50.67;;;;;;;6.21;100.00;103261.50;4989385;28;20085;-78
2023/02/11 10:38:43;;;;;;;307.25;84.65;;;;;;;6.35;100.00;103255.75;4980147;28;20049;-79
2023/02/11 10:41:19;;;;;;;237.60;64.70;;;;;;;6.37;100.00;103261.66;4985881;28;20120;-80
2023/02/11 10:43:44;;;;;;;236.75;64.47;;;;;;;6.27;100.00;103255.25;4973919;28;20026;-80
2023/02/11 10:46:28;;;;;;;167.65;49.42;;;;;;;6.27;100.00;103253.50;4988919;28;20049;-80
2023/02/11 10:48:53;;;;;;;210.40;60.83;;;;;;;6.26;100.00;103251.84;4971520;28;20053;-79
2023/02/11 10:51:33;;;;;;;301.02;76.57;;;;;;;6.32;100.00;103255.88;4991421;28;20042;-79
2023/02/11 10:54:18;;;;;;;168.68;49.88;;;;;;;6.29;100.00;103262.00;4987553;28;20542;-81
2023/02/11 10:56:49;;;;;;;243.48;70.00;;;;;;;6.30;100.00;103250.78;4989298;28;20080;-79
2023/02/11 10:59:27;;;;;;;109.30;40.50;;;;;;;6.28;100.00;103257.75;4993189;28;20045;-79
2023/02/11 11:02:01;;;;;;;89.95;33.97;;;;;;;6.30;100.00;103262.84;4991715;28;20061;-79
2023/02/11 11:04:29;;;;;;;80.38;30.67;;;;;;;6.37;100.00;103264.25;4992594;28;20037;-79
2023/02/11 11:07:14;;;;;;;89.25;30.45;;;;;;;6.45;100.00;103262.16;4998223;28;20120;-79
2023/02/11 11:09:52;;;;;;;84.30;29.00;;;;;;;6.56;100.00;103269.41;4985763;28;20606;-81
2023/02/11 11:12:39;;;;;;;82.88;31.20;;;;;;;6.53;100.00;103259.22;4989802;28;20092;-79
2023/02/11 11:15:22;;;;;;;95.63;32.78;;;;;;;6.48;100.00;103256.88;4988327;28;20038;-82
2023/02/11 11:17:49;;;;;;;73.20;30.65;;;;;;;6.48;100.00;103262.03;5005027;28;20033;-79
2023/02/11 11:20:26;;;;;;;73.88;28.67;;;;;;;6.45;100.00;103262.16;5014552;28;20646;-81
2023/02/11 11:23:07;;;;;;;82.47;27.98;;;;;;;6.53;100.00;103264.38;4997617;28;20069;-81
2023/02/11 11:25:36;;;;;;;80.45;28.17;;;;;;;6.52;100.00;103265.31;4993979;28;20494;-80